Terminal Aerodrome Forecast
Issued by NWS

Home | Current Version | Previous Version | Text Only | Print | Product List | Glossary On
Versions: 1 2 3 4 5 6 7 8 9 10 11 12 13 14
000
FTUS45 KBOI 272336
TAFBKE
TAF
KBKE 272336Z 2800/2824 32010G15KT P6SM VCSH BKN050
      TEMPO 2800/2801 -SHRA BKN030
     FM280200 30007KT P6SM SCT040
     FM281000 VRB03KT P6SM VCFG SCT005
     FM281500 VRB06KT P6SM BKN080=

USA.gov is the U.S. government's official web portal to all federal, state and local government web resources and services.